createdAt,value
2023-05-16T00:00:35.141Z,37
2023-05-16T00:01:36.916Z,37
2023-05-16T00:02:38.854Z,37
2023-05-16T00:03:41.326Z,37
2023-05-16T00:04:45.918Z,37
2023-05-16T00:05:47.785Z,37
2023-05-16T00:06:49.716Z,37
2023-05-16T00:07:51.503Z,37
2023-05-16T00:08:53.063Z,37.1
2023-05-16T00:09:54.702Z,37
2023-05-16T00:10:56.290Z,37
2023-05-16T00:11:58.046Z,37.1
2023-05-16T00:13:00.001Z,37.1
2023-05-16T00:14:02.049Z,37.1
2023-05-16T00:15:03.722Z,37.1
2023-05-16T00:16:05.541Z,37.1
2023-05-16T00:17:07.698Z,37.1
2023-05-16T00:18:13.135Z,37.1
2023-05-16T00:19:14.817Z,37.1
2023-05-16T00:20:17.008Z,37.1
2023-05-16T00:21:19.035Z,37.1
2023-05-16T00:22:25.256Z,37.1
2023-05-16T00:23:27.102Z,37.1
2023-05-16T00:24:28.950Z,37
2023-05-16T00:25:30.822Z,37.1
2023-05-16T00:26:32.586Z,37.1
2023-05-16T00:27:34.178Z,37.1
2023-05-16T00:28:35.766Z,37.1
2023-05-16T00:29:37.385Z,37.1
2023-05-16T00:30:39.224Z,37.1
2023-05-16T00:31:41.136Z,37.1
2023-05-16T00:32:43.068Z,37.1
2023-05-16T00:33:45.095Z,37.1
2023-05-16T00:34:47.066Z,37.1
2023-05-16T00:35:48.989Z,37.1
2023-05-16T00:36:50.832Z,37.1
2023-05-16T00:37:52.702Z,37.1
2023-05-16T00:38:54.642Z,37.1
2023-05-16T00:39:56.505Z,37.2
2023-05-16T00:40:58.344Z,37.2
2023-05-16T00:42:00.151Z,37.1
2023-05-16T00:43:01.752Z,37.1
2023-05-16T00:44:03.424Z,37.1
2023-05-16T00:45:05.230Z,37.2
2023-05-16T00:46:06.994Z,37.2
2023-05-16T00:47:08.932Z,37.2
2023-05-16T00:48:10.835Z,37.2
2023-05-16T00:49:12.939Z,37.2
2023-05-16T00:50:14.582Z,37.2
2023-05-16T00:51:16.383Z,37.2
2023-05-16T00:52:18.066Z,37.2
2023-05-16T00:53:19.929Z,37.2
2023-05-16T00:54:21.796Z,37.2
2023-05-16T00:55:23.593Z,37.2
2023-05-16T00:56:25.186Z,37.2
2023-05-16T00:57:26.840Z,37.2
2023-05-16T00:58:28.569Z,37.2
2023-05-16T00:59:30.418Z,37.2
2023-05-16T01:00:32.261Z,37.2
2023-05-16T01:01:34.148Z,37.2
2023-05-16T01:02:36.394Z,37.2
2023-05-16T01:03:38.725Z,37.2
2023-05-16T01:04:40.940Z,37.2
2023-05-16T01:05:42.655Z,37.2
2023-05-16T01:06:44.592Z,37.2
2023-05-16T01:07:46.483Z,37.2
2023-05-16T01:08:48.283Z,37.2
2023-05-16T01:09:49.931Z,37.2
2023-05-16T01:10:51.503Z,37.3
2023-05-16T01:11:53.140Z,37.3
2023-05-16T01:12:54.954Z,37.3
2023-05-16T01:13:56.543Z,37.3
2023-05-16T01:14:58.188Z,37.3
2023-05-16T01:16:00.048Z,37.3
2023-05-16T01:17:02.091Z,37.3
2023-05-16T01:18:03.843Z,37.3
2023-05-16T01:19:05.879Z,37.3
2023-05-16T01:20:07.950Z,37.3
2023-05-16T01:21:09.625Z,37.3
2023-05-16T01:22:11.310Z,37.3
2023-05-16T01:23:13.189Z,37.3
2023-05-16T01:24:15.106Z,37.3
2023-05-16T01:25:16.971Z,37.3
2023-05-16T01:26:18.791Z,37.3
2023-05-16T01:27:20.393Z,37.4
2023-05-16T01:28:22.105Z,37.3
2023-05-16T01:29:23.863Z,37.3
2023-05-16T01:30:25.462Z,37.3
2023-05-16T01:31:27.377Z,37.4
2023-05-16T01:32:29.118Z,37.4
2023-05-16T01:33:30.844Z,37.4
2023-05-16T01:34:32.697Z,37.4
2023-05-16T01:35:34.448Z,37.5
2023-05-16T01:36:37.532Z,37.5
2023-05-16T01:37:39.340Z,37.5
2023-05-16T01:38:40.954Z,37.4
2023-05-16T01:39:42.768Z,37.4
2023-05-16T01:40:44.411Z,37.4
2023-05-16T01:41:46.265Z,37.4
2023-05-16T01:42:48.112Z,37.4
2023-05-16T01:43:49.955Z,37.4
2023-05-16T01:44:51.780Z,37.4
2023-05-16T01:45:53.367Z,37.5
2023-05-16T01:46:55.322Z,37.5
2023-05-16T01:47:57.262Z,37.5
2023-05-16T01:48:59.103Z,37.5
2023-05-16T01:50:00.953Z,37.4
2023-05-16T01:51:02.710Z,37.4
2023-05-16T01:52:04.665Z,37.5
2023-05-16T01:53:06.487Z,37.5
2023-05-16T01:54:08.120Z,37.5
2023-05-16T01:55:09.828Z,37.4
2023-05-16T01:56:11.427Z,37.4
2023-05-16T01:57:13.099Z,37.4
2023-05-16T01:58:15.034Z,37.4
2023-05-16T01:59:17.092Z,37.4
2023-05-16T02:00:18.876Z,37.4
2023-05-16T02:01:20.667Z,37.4
2023-05-16T02:02:22.988Z,37.4
2023-05-16T02:03:24.812Z,37.4
2023-05-16T02:04:26.568Z,37.4
2023-05-16T02:05:29.037Z,37.4
2023-05-16T02:06:32.688Z,37.4
2023-05-16T02:07:34.362Z,37.3
2023-05-16T02:08:36.203Z,37.3
2023-05-16T02:09:37.986Z,37.3
2023-05-16T02:10:39.901Z,37.3
2023-05-16T02:11:41.755Z,37.3
2023-05-16T02:12:43.541Z,37.3
2023-05-16T02:13:45.259Z,37.3
2023-05-16T02:14:47.098Z,37.4
2023-05-16T02:15:48.950Z,37.4
2023-05-16T02:16:50.933Z,37.4
2023-05-16T02:17:53.007Z,37.4
2023-05-16T02:18:55.092Z,37.4
2023-05-16T02:19:57.077Z,37.4
2023-05-16T02:20:58.924Z,37.4
2023-05-16T02:22:00.611Z,37.4
2023-05-16T02:23:02.210Z,37.4
2023-05-16T02:24:04.176Z,37.4
2023-05-16T02:25:06.229Z,37.4
2023-05-16T02:26:08.068Z,37.4
2023-05-16T02:27:10.029Z,37.4
2023-05-16T02:28:11.964Z,37.4
2023-05-16T02:29:13.824Z,37.4
2023-05-16T02:30:15.785Z,37.4
2023-05-16T02:31:17.735Z,37.4
2023-05-16T02:32:19.696Z,37.4
2023-05-16T02:33:21.626Z,37.3
2023-05-16T02:34:23.483Z,37.4
2023-05-16T02:35:25.780Z,37.4
2023-05-16T02:36:28.516Z,37.4
2023-05-16T02:37:30.362Z,37.4
2023-05-16T02:38:32.326Z,37.4
2023-05-16T02:39:34.135Z,37.4
2023-05-16T02:40:36.003Z,37.4
2023-05-16T02:41:37.857Z,37.4
2023-05-16T02:42:39.653Z,37.4
2023-05-16T02:43:41.342Z,37.4
2023-05-16T02:44:42.999Z,37.4
2023-05-16T02:45:44.842Z,37.4
2023-05-16T02:46:47.202Z,37.4
2023-05-16T02:47:49.584Z,37.4
2023-05-16T02:48:51.530Z,37.4
2023-05-16T02:49:53.402Z,37.4
2023-05-16T02:50:55.199Z,37.4
2023-05-16T02:51:57.086Z,37.4
2023-05-16T02:52:58.925Z,37.4
2023-05-16T02:54:00.647Z,37.4
2023-05-16T02:55:21.967Z,37.4
2023-05-16T02:56:38.290Z,37.3
2023-05-16T02:57:40.228Z,37.3
2023-05-16T02:58:41.969Z,37.3
2023-05-16T02:59:43.727Z,37.3
2023-05-16T03:00:45.567Z,37.3
2023-05-16T03:01:47.539Z,37.3
2023-05-16T03:02:49.815Z,37.3
2023-05-16T03:03:52.181Z,37.4
2023-05-16T03:04:54.373Z,37.4
2023-05-16T03:05:56.245Z,37.4
2023-05-16T03:06:58.206Z,37.5
2023-05-16T03:08:00.027Z,37.6
2023-05-16T03:09:01.670Z,37.7
2023-05-16T03:10:03.348Z,37.6
2023-05-16T03:11:05.201Z,37.6
2023-05-16T03:12:07.592Z,37.5
2023-05-16T03:13:09.511Z,37.5
2023-05-16T03:14:11.836Z,37.5
2023-05-16T03:15:13.622Z,37.5
2023-05-16T03:16:15.615Z,37.5
2023-05-16T03:17:17.716Z,37.5
2023-05-16T03:18:19.682Z,37.5
2023-05-16T03:19:21.557Z,37.5
2023-05-16T03:20:23.677Z,37.5
2023-05-16T03:21:28.424Z,37.5
2023-05-16T03:22:30.393Z,37.5
2023-05-16T03:23:32.299Z,37.5
2023-05-16T03:24:34.311Z,37.4
2023-05-16T03:25:36.278Z,37.5
2023-05-16T03:26:38.166Z,37.5
2023-05-16T03:27:39.968Z,37.6
2023-05-16T03:28:41.765Z,37.6
2023-05-16T03:29:43.585Z,37.6
2023-05-16T03:30:48.168Z,37.6
2023-05-16T03:31:50.395Z,37.6
2023-05-16T03:32:52.297Z,37.7
2023-05-16T03:33:54.324Z,37.8
2023-05-16T03:34:56.040Z,37.7
2023-05-16T03:35:57.886Z,37.7
2023-05-16T03:36:59.822Z,37.7
2023-05-16T03:38:01.692Z,37.7
2023-05-16T03:39:03.437Z,37.7
2023-05-16T03:40:05.188Z,37.8
2023-05-16T03:41:06.955Z,37.8
2023-05-16T03:42:08.684Z,37.8
2023-05-16T03:43:10.506Z,37.8
2023-05-16T03:44:12.371Z,37.9
2023-05-16T03:45:14.220Z,37.8
2023-05-16T03:46:16.191Z,37.8
2023-05-16T03:47:18.215Z,37.7
2023-05-16T03:48:20.080Z,37.7
2023-05-16T03:49:21.972Z,37.6
2023-05-16T03:50:23.788Z,37.6
2023-05-16T03:51:25.639Z,37.6
2023-05-16T03:52:27.389Z,37.7
2023-05-16T03:53:29.113Z,37.7
2023-05-16T03:54:30.778Z,37.7
2023-05-16T03:55:32.622Z,37.7
2023-05-16T03:56:34.475Z,37.7
2023-05-16T03:57:36.291Z,37.7
2023-05-16T03:58:38.300Z,37.7
2023-05-16T03:59:40.351Z,37.7
2023-05-16T04:00:42.286Z,37.6
2023-05-16T04:01:44.282Z,37.5
2023-05-16T04:02:46.433Z,37.6
2023-05-16T04:03:48.674Z,37.6
2023-05-16T04:04:50.401Z,37.6
2023-05-16T04:05:52.377Z,37.5
2023-05-16T04:06:54.301Z,37.6
2023-05-16T04:07:56.163Z,37.6
2023-05-16T04:08:58.104Z,37.7
2023-05-16T04:09:59.963Z,37.9
2023-05-16T04:11:01.806Z,38
2023-05-16T04:12:03.654Z,38
2023-05-16T04:13:05.517Z,38
2023-05-16T04:14:07.705Z,38
2023-05-16T04:15:09.723Z,38.1
2023-05-16T04:16:11.482Z,38.2
2023-05-16T04:17:13.676Z,38.2
2023-05-16T04:18:15.905Z,38.3
2023-05-16T04:19:18.834Z,38.3
2023-05-16T04:20:21.236Z,38.2
2023-05-16T04:21:22.969Z,38.2
2023-05-16T04:22:24.936Z,38
2023-05-16T04:23:26.801Z,38.1
2023-05-16T04:24:28.625Z,37.9
2023-05-16T04:25:30.679Z,37.8
2023-05-16T04:26:32.532Z,38
2023-05-16T04:27:34.491Z,38
2023-05-16T04:28:36.186Z,38.1
2023-05-16T04:29:38.104Z,38.1
2023-05-16T04:30:39.934Z,38.3
2023-05-16T04:31:41.794Z,38.1
2023-05-16T04:32:43.834Z,38.2
2023-05-16T04:33:45.702Z,38.2
2023-05-16T04:34:47.537Z,38.1
2023-05-16T04:35:49.395Z,38.2
2023-05-16T04:36:51.133Z,38.2
2023-05-16T04:37:52.765Z,38.2
2023-05-16T04:38:54.534Z,38.1
2023-05-16T04:39:56.370Z,38.1
2023-05-16T04:40:58.230Z,38.1
2023-05-16T04:42:00.097Z,38.2
2023-05-16T04:43:02.132Z,38.1
2023-05-16T04:44:04.159Z,38.2
2023-05-16T04:45:06.166Z,38.3
2023-05-16T04:46:08.208Z,38.3
2023-05-16T04:47:10.145Z,38.3
2023-05-16T04:48:12.133Z,38.3
2023-05-16T04:49:13.950Z,38.3
2023-05-16T04:50:15.802Z,38.3
2023-05-16T04:51:17.767Z,38.1
2023-05-16T04:52:19.695Z,38.2
2023-05-16T04:53:21.553Z,38.2
2023-05-16T04:54:23.519Z,38.2
2023-05-16T04:55:25.782Z,38.2
2023-05-16T04:56:29.159Z,38.2
2023-05-16T04:57:31.109Z,38.1
2023-05-16T04:58:32.841Z,38.2
2023-05-16T04:59:34.499Z,38.2
2023-05-16T05:00:36.367Z,38.2
2023-05-16T05:01:38.333Z,38.1
2023-05-16T05:02:40.364Z,38.1
2023-05-16T05:03:42.201Z,38
2023-05-16T05:04:44.180Z,38.1
2023-05-16T05:05:46.009Z,38.1
2023-05-16T05:06:47.858Z,38.2
2023-05-16T05:07:49.709Z,38.2
2023-05-16T05:08:51.758Z,38.2
2023-05-16T05:09:53.506Z,38.1
2023-05-16T05:10:55.661Z,38.2
2023-05-16T05:11:57.524Z,38.1
2023-05-16T05:12:59.265Z,38.1
2023-05-16T05:14:01.336Z,38.1
2023-05-16T05:15:05.747Z,38
2023-05-16T05:16:07.913Z,37.8
2023-05-16T05:17:09.874Z,37.7
2023-05-16T05:18:12.099Z,37.7
2023-05-16T05:19:14.323Z,37.7
2023-05-16T05:20:16.405Z,37.7
2023-05-16T05:21:18.262Z,37.7
2023-05-16T05:22:20.155Z,37.7
2023-05-16T05:23:21.888Z,37.8
2023-05-16T05:24:23.619Z,37.7
2023-05-16T05:25:25.832Z,37.8
2023-05-16T05:26:28.647Z,37.8
2023-05-16T05:27:30.488Z,37.7
2023-05-16T05:28:32.184Z,37.8
2023-05-16T05:29:34.200Z,37.8
2023-05-16T05:30:36.144Z,37.7
2023-05-16T05:31:38.134Z,37.8
2023-05-16T05:32:40.277Z,37.8
2023-05-16T05:33:42.179Z,37.8
2023-05-16T05:34:43.952Z,37.8
2023-05-16T05:35:45.796Z,37.8
2023-05-16T05:36:47.450Z,37.8
2023-05-16T05:37:49.292Z,37.8
2023-05-16T05:38:51.124Z,37.8
2023-05-16T05:39:53.130Z,37.8
2023-05-16T05:40:54.992Z,37.8
2023-05-16T05:41:56.905Z,37.7
2023-05-16T05:42:58.698Z,37.7
2023-05-16T05:44:00.498Z,37.7
2023-05-16T05:45:02.422Z,37.7
2023-05-16T05:46:04.422Z,37.7
2023-05-16T05:47:06.558Z,37.7
2023-05-16T05:48:08.453Z,37.7
2023-05-16T05:49:10.462Z,37.7
2023-05-16T05:50:12.219Z,37.7
2023-05-16T05:51:14.075Z,37.7
2023-05-16T05:52:15.894Z,37.7
2023-05-16T05:53:17.768Z,37.7
2023-05-16T05:54:19.608Z,37.7
2023-05-16T05:55:22.024Z,37.6
2023-05-16T05:56:23.937Z,37.6
2023-05-16T05:57:25.763Z,37.6
2023-05-16T05:58:27.642Z,37.6
2023-05-16T05:59:29.490Z,37.5
2023-05-16T06:00:31.296Z,37.6
2023-05-16T06:01:33.204Z,37.6
2023-05-16T06:02:35.202Z,37.6
2023-05-16T06:03:37.633Z,37.5
2023-05-16T06:04:39.650Z,37.6
2023-05-16T06:05:44.292Z,37.6
2023-05-16T06:06:46.221Z,37.7
2023-05-16T06:07:48.070Z,37.6
2023-05-16T06:08:49.928Z,37.7
2023-05-16T06:09:51.771Z,37.6
2023-05-16T06:10:53.625Z,37.7
2023-05-16T06:11:55.621Z,37.8
2023-05-16T06:12:57.334Z,37.8
2023-05-16T06:13:59.173Z,37.8
2023-05-16T06:15:01.019Z,37.8
2023-05-16T06:16:02.996Z,37.8
2023-05-16T06:17:04.951Z,37.7
2023-05-16T06:18:07.273Z,37.8
2023-05-16T06:19:09.680Z,37.8
2023-05-16T06:20:11.808Z,37.8
2023-05-16T06:21:13.764Z,37.8
2023-05-16T06:22:15.613Z,37.8
2023-05-16T06:23:21.131Z,37.8
2023-05-16T06:24:23.300Z,37.8
2023-05-16T06:25:25.272Z,37.9
2023-05-16T06:26:28.038Z,37.9
2023-05-16T06:27:29.976Z,37.8
2023-05-16T06:28:31.938Z,37.8
2023-05-16T06:29:33.887Z,37.7
2023-05-16T06:30:35.830Z,37.6
2023-05-16T06:31:37.848Z,37.6
2023-05-16T06:32:39.963Z,37.6
2023-05-16T06:33:42.020Z,37.6
2023-05-16T06:34:43.960Z,37.6
2023-05-16T06:35:45.915Z,37.6
2023-05-16T06:36:47.756Z,37.5
2023-05-16T06:37:49.498Z,37.8
2023-05-16T06:38:51.844Z,37.4
2023-05-16T06:39:53.727Z,37.3
2023-05-16T06:40:55.514Z,37.4
2023-05-16T06:41:57.308Z,37.4
2023-05-16T06:42:59.015Z,37.4
2023-05-16T06:44:00.914Z,37.4
2023-05-16T06:45:02.961Z,37.3
2023-05-16T06:46:04.967Z,37.3
2023-05-16T06:47:07.216Z,37.4
2023-05-16T06:48:09.532Z,37.4
2023-05-16T06:49:11.822Z,37.4
2023-05-16T06:50:13.756Z,37.5
2023-05-16T06:51:15.723Z,37.5
2023-05-16T06:52:17.555Z,37.5
2023-05-16T06:53:19.413Z,37.5
2023-05-16T06:54:21.463Z,37.5
2023-05-16T06:55:23.587Z,37.5
2023-05-16T06:56:25.576Z,37.5
2023-05-16T06:57:27.414Z,37.5
2023-05-16T06:58:29.268Z,37.4
2023-05-16T06:59:31.212Z,37.5
2023-05-16T07:00:33.203Z,37.4
2023-05-16T07:01:35.132Z,37.4
2023-05-16T07:02:37.240Z,37.3
2023-05-16T07:03:39.555Z,37.4
2023-05-16T07:04:41.962Z,37.3
2023-05-16T07:05:44.064Z,37.3
2023-05-16T07:06:45.992Z,37.2
2023-05-16T07:07:47.759Z,37.2
2023-05-16T07:08:49.693Z,37.2
2023-05-16T07:09:51.459Z,37.2
2023-05-16T07:10:53.315Z,37.3
2023-05-16T07:11:55.129Z,37.2
2023-05-16T07:12:57.031Z,37.2
2023-05-16T07:13:59.080Z,37.2
2023-05-16T07:15:01.030Z,37.2
2023-05-16T07:16:03.413Z,37.2
2023-05-16T07:17:05.656Z,37.2
2023-05-16T07:18:07.661Z,37.2
2023-05-16T07:19:09.885Z,37.2
2023-05-16T07:20:11.939Z,37.2
2023-05-16T07:21:13.976Z,37.2
2023-05-16T07:22:15.699Z,37.1
2023-05-16T07:23:17.751Z,37.2
2023-05-16T07:24:19.612Z,37.1
2023-05-16T07:25:21.375Z,37.2
2023-05-16T07:26:24.362Z,37.2
2023-05-16T07:27:26.129Z,37.2
2023-05-16T07:28:28.033Z,37.2
2023-05-16T07:29:29.891Z,37.2
2023-05-16T07:30:31.741Z,37.1
2023-05-16T07:31:33.792Z,37.2
2023-05-16T07:32:35.865Z,37.2
2023-05-16T07:33:37.762Z,37.2
2023-05-16T07:34:39.776Z,37.2
2023-05-16T07:35:41.778Z,37.1
2023-05-16T07:36:44.037Z,37.2
2023-05-16T07:37:46.028Z,37.1
2023-05-16T07:38:47.870Z,37.1
2023-05-16T07:39:49.610Z,37.1
2023-05-16T07:40:51.366Z,37.1
2023-05-16T07:41:53.320Z,37
2023-05-16T07:42:55.273Z,37
2023-05-16T07:43:57.107Z,37
2023-05-16T07:44:59.071Z,36.9
2023-05-16T07:46:00.982Z,36.8
2023-05-16T07:47:03.184Z,36.8
2023-05-16T07:48:05.297Z,36.6
2023-05-16T07:49:07.311Z,36.5
2023-05-16T07:50:09.129Z,36.4
2023-05-16T07:51:11.005Z,36.4
2023-05-16T07:52:12.920Z,36.4
2023-05-16T07:53:14.682Z,36.3
2023-05-16T07:54:17.161Z,36.2
2023-05-16T07:55:18.943Z,36.1
2023-05-16T07:56:20.849Z,36.1
2023-05-16T07:57:25.349Z,36.1
2023-05-16T07:58:27.307Z,36.1
2023-05-16T07:59:29.301Z,36.2
2023-05-16T08:00:31.217Z,36.1
2023-05-16T08:01:33.166Z,36
2023-05-16T08:02:35.231Z,35.9
2023-05-16T08:03:37.942Z,35.8
2023-05-16T08:04:40.557Z,35.9
2023-05-16T08:05:42.533Z,35.8
2023-05-16T08:06:45.135Z,35.7
2023-05-16T08:07:47.244Z,35.7
2023-05-16T08:08:49.122Z,35.7
2023-05-16T08:09:50.851Z,35.6
2023-05-16T08:10:52.767Z,35.6
2023-05-16T08:11:54.751Z,35.6
2023-05-16T08:12:56.703Z,35.5
2023-05-16T08:13:58.754Z,35.4
2023-05-16T08:15:00.903Z,35.4
2023-05-16T08:16:03.347Z,35.4
2023-05-16T08:17:05.954Z,35.3
2023-05-16T08:18:08.027Z,35.3
2023-05-16T08:19:11.120Z,35.3
2023-05-16T08:20:13.125Z,35.3
2023-05-16T08:21:14.987Z,35.3
2023-05-16T08:22:17.314Z,35.3
2023-05-16T08:23:19.705Z,35.2
2023-05-16T08:24:21.751Z,35.4
2023-05-16T08:25:23.501Z,35.3
2023-05-16T08:26:25.974Z,35.2
2023-05-16T08:27:27.822Z,35.1
2023-05-16T08:28:30.188Z,35.2
2023-05-16T08:29:32.129Z,35
2023-05-16T08:30:33.842Z,35.1
2023-05-16T08:31:35.978Z,35.1
2023-05-16T08:32:38.344Z,35.1
2023-05-16T08:33:40.370Z,35
2023-05-16T08:34:42.115Z,35
2023-05-16T08:35:43.943Z,34.9
2023-05-16T08:36:48.996Z,35
2023-05-16T08:37:50.854Z,34.9
2023-05-16T08:38:52.980Z,34.8
2023-05-16T08:39:54.845Z,34.9
2023-05-16T08:40:56.801Z,34.8
2023-05-16T08:41:58.643Z,34.9
2023-05-16T08:43:00.788Z,35
2023-05-16T08:44:02.635Z,35
2023-05-16T08:45:04.560Z,34.9
2023-05-16T08:46:06.547Z,35
2023-05-16T08:47:08.630Z,34.9
2023-05-16T08:48:11.186Z,34.8
2023-05-16T08:49:13.642Z,34.8
2023-05-16T08:50:15.498Z,34.7
2023-05-16T08:51:17.411Z,34.6
2023-05-16T08:52:19.404Z,34.5
2023-05-16T08:53:21.258Z,34.6
2023-05-16T08:54:27.408Z,34.5
2023-05-16T08:55:30.411Z,34.4
2023-05-16T08:56:32.595Z,34.5
2023-05-16T08:57:34.704Z,34.5
2023-05-16T08:58:36.423Z,34.5
2023-05-16T08:59:38.310Z,34.4
2023-05-16T09:00:40.373Z,34.4
2023-05-16T09:01:42.711Z,34.4
2023-05-16T09:02:45.300Z,34.3
2023-05-16T09:03:47.497Z,34.3
2023-05-16T09:04:49.676Z,34.2
2023-05-16T09:05:51.627Z,34.2
2023-05-16T09:06:53.497Z,34.1
2023-05-16T09:07:55.333Z,34.2
2023-05-16T09:08:57.056Z,34
2023-05-16T09:09:59.130Z,34.2
2023-05-16T09:11:01.197Z,34.3
2023-05-16T09:12:02.926Z,34.5
2023-05-16T09:13:04.553Z,34.3
2023-05-16T09:14:06.352Z,34.2
2023-05-16T09:15:08.288Z,34.2
2023-05-16T09:16:10.230Z,34.2
2023-05-16T09:17:12.959Z,34.1
2023-05-16T09:18:14.977Z,34.2
2023-05-16T09:19:17.074Z,34.1
2023-05-16T09:20:19.102Z,34.1
2023-05-16T09:21:21.056Z,34.1
2023-05-16T09:22:22.852Z,34.2
2023-05-16T09:23:24.732Z,34.1
2023-05-16T09:24:26.689Z,34.1
2023-05-16T09:25:32.391Z,34.2
2023-05-16T09:26:34.880Z,34.1
2023-05-16T09:27:36.843Z,34.2
2023-05-16T09:28:38.685Z,34
2023-05-16T09:29:40.366Z,33.8
2023-05-16T09:30:42.181Z,34
2023-05-16T09:31:44.333Z,33.8
2023-05-16T09:32:46.642Z,33.7
2023-05-16T09:33:48.457Z,33.7
2023-05-16T09:34:50.294Z,33.8
2023-05-16T09:35:51.951Z,33.8
2023-05-16T09:36:53.782Z,33.8
2023-05-16T09:37:55.738Z,33.8
2023-05-16T09:38:57.586Z,33.7
2023-05-16T09:39:59.678Z,34.1
2023-05-16T09:41:01.797Z,33.9
2023-05-16T09:42:03.650Z,33.6
2023-05-16T09:43:05.530Z,33.9
2023-05-16T09:44:07.873Z,33.7
2023-05-16T09:45:09.732Z,33.8
2023-05-16T09:46:11.726Z,33.8
2023-05-16T09:47:13.928Z,33.8
2023-05-16T09:48:15.958Z,33.6
2023-05-16T09:49:18.071Z,33.4
2023-05-16T09:50:20.407Z,33.5
2023-05-16T09:51:22.366Z,33.5
2023-05-16T09:52:24.212Z,33.2
2023-05-16T09:53:26.076Z,33.3
2023-05-16T09:54:27.909Z,33.2
2023-05-16T09:55:30.215Z,33.2
2023-05-16T09:56:32.320Z,33.1
2023-05-16T09:57:34.379Z,33
2023-05-16T09:58:36.363Z,33.1
2023-05-16T09:59:38.167Z,33.2
2023-05-16T10:00:39.935Z,33.2
2023-05-16T10:01:41.910Z,33.2
2023-05-16T10:02:44.397Z,33.2
2023-05-16T10:03:47.075Z,33.1
2023-05-16T10:04:50.367Z,33
2023-05-16T10:05:52.157Z,32.9
2023-05-16T10:06:54.102Z,33
2023-05-16T10:07:55.859Z,33
2023-05-16T10:08:57.706Z,32.9
2023-05-16T10:09:59.743Z,32.9
2023-05-16T10:11:01.875Z,32.7
2023-05-16T10:12:03.971Z,32.6
2023-05-16T10:13:06.295Z,32.7
2023-05-16T10:14:08.283Z,32.7
2023-05-16T10:15:10.332Z,32.6
2023-05-16T10:16:12.555Z,32.6
2023-05-16T10:17:14.748Z,32.7
2023-05-16T10:18:16.720Z,32.5
2023-05-16T10:19:19.154Z,32.9
2023-05-16T10:20:21.382Z,32.9
2023-05-16T10:21:24.120Z,32.7
2023-05-16T10:22:25.935Z,32.8
2023-05-16T10:23:27.762Z,32.5
2023-05-16T10:24:29.853Z,32.5
2023-05-16T10:25:32.317Z,32.6
2023-05-16T10:26:34.636Z,32.5
2023-05-16T10:27:36.721Z,32.6
2023-05-16T10:28:38.579Z,32.6
2023-05-16T10:29:54.892Z,32.6
2023-05-16T10:30:56.905Z,32.4
2023-05-16T10:31:58.804Z,32.4
2023-05-16T10:33:00.929Z,32.5
2023-05-16T10:34:03.093Z,32.5
2023-05-16T10:35:04.978Z,32.4
2023-05-16T10:36:06.777Z,32.4
2023-05-16T10:37:08.807Z,32.4
2023-05-16T10:38:10.798Z,32.4
2023-05-16T10:39:12.647Z,32.5
2023-05-16T10:40:14.459Z,32.4
2023-05-16T10:41:16.678Z,32.5
2023-05-16T10:42:18.862Z,32.5
2023-05-16T10:43:21.151Z,32.5
2023-05-16T10:44:24.065Z,32.4
2023-05-16T10:45:26.363Z,32.4
2023-05-16T10:46:29.686Z,32.4
2023-05-16T10:47:32.639Z,32.3
2023-05-16T10:48:34.609Z,32.2
2023-05-16T10:49:36.368Z,32.2
2023-05-16T10:50:38.335Z,32.1
2023-05-16T10:51:40.276Z,32.2
2023-05-16T10:52:42.612Z,32.2
2023-05-16T10:53:44.436Z,32
2023-05-16T10:54:46.725Z,32.1
2023-05-16T10:55:48.583Z,32
2023-05-16T10:56:50.444Z,32.1
2023-05-16T10:57:52.417Z,32
2023-05-16T10:58:54.678Z,32.1
2023-05-16T10:59:58.577Z,32
2023-05-16T11:01:00.409Z,31.9
2023-05-16T11:02:02.458Z,31.9
2023-05-16T11:03:05.414Z,31.9
2023-05-16T11:04:07.691Z,31.9
2023-05-16T11:05:09.942Z,32.2
2023-05-16T11:06:11.681Z,31.8
2023-05-16T11:07:13.448Z,31.9
2023-05-16T11:08:15.218Z,31.9
2023-05-16T11:09:17.148Z,31.9
2023-05-16T11:10:19.034Z,31.8
2023-05-16T11:11:21.052Z,31.9
2023-05-16T11:12:23.105Z,32
2023-05-16T11:13:25.026Z,32
2023-05-16T11:14:27.037Z,31.9
2023-05-16T11:15:29.802Z,31.7
2023-05-16T11:16:32.481Z,31.8
2023-05-16T11:17:34.547Z,31.7
2023-05-16T11:18:36.495Z,31.7
2023-05-16T11:19:38.303Z,31.8
2023-05-16T11:20:40.154Z,31.7
2023-05-16T11:21:42.077Z,31.7
2023-05-16T11:22:44.000Z,31.7
2023-05-16T11:23:45.808Z,31.6
2023-05-16T11:24:47.557Z,31.7
2023-05-16T11:25:49.437Z,31.8
2023-05-16T11:26:51.501Z,32.1
2023-05-16T11:27:53.408Z,32
2023-05-16T11:28:55.435Z,32
2023-05-16T11:30:01.035Z,31.9
2023-05-16T11:31:05.949Z,32
2023-05-16T11:32:08.003Z,31.9
2023-05-16T11:33:09.931Z,32.2
2023-05-16T11:34:11.920Z,32.1
2023-05-16T11:35:25.616Z,32.3
2023-05-16T11:36:27.978Z,32.2
2023-05-16T11:37:29.950Z,32.3
2023-05-16T11:38:31.784Z,32.3
2023-05-16T11:39:33.691Z,32.4
2023-05-16T11:40:35.607Z,32.6
2023-05-16T11:41:37.237Z,32.5
2023-05-16T11:42:39.134Z,32.5
2023-05-16T11:43:40.942Z,32.4
2023-05-16T11:44:43.502Z,32.5
2023-05-16T11:45:45.674Z,32.5
2023-05-16T11:46:47.658Z,32.6
2023-05-16T11:47:50.523Z,32.6
2023-05-16T11:48:52.558Z,32.6
2023-05-16T11:49:54.403Z,32.6
2023-05-16T11:50:56.328Z,32.7
2023-05-16T11:51:58.215Z,32.7
2023-05-16T11:52:59.963Z,32.7
2023-05-16T11:54:01.705Z,32.8
2023-05-16T11:55:03.536Z,32.8
2023-05-16T11:56:05.995Z,32.8
2023-05-16T11:57:07.840Z,32.8
2023-05-16T11:58:09.937Z,32.9
2023-05-16T11:59:12.078Z,32.9
2023-05-16T12:00:14.257Z,32.9
2023-05-16T12:01:16.502Z,32.9
2023-05-16T12:02:18.370Z,32.9
2023-05-16T12:03:20.496Z,33
2023-05-16T12:04:23.367Z,33
2023-05-16T12:05:26.911Z,33
2023-05-16T12:06:29.415Z,33
2023-05-16T12:07:31.375Z,33.1
2023-05-16T12:08:33.230Z,33.1
2023-05-16T12:09:35.071Z,33
2023-05-16T12:10:36.824Z,33
2023-05-16T12:11:38.669Z,33
2023-05-16T12:12:41.036Z,33
2023-05-16T12:13:42.871Z,32.9
2023-05-16T12:14:45.382Z,32.9
2023-05-16T12:15:47.693Z,32.9
2023-05-16T12:16:50.184Z,32.8
2023-05-16T12:17:52.358Z,32.8
2023-05-16T12:18:54.387Z,32.9
2023-05-16T12:19:56.340Z,32.9
2023-05-16T12:20:58.204Z,32.9
2023-05-16T12:22:00.050Z,32.9
2023-05-16T12:23:01.797Z,33
2023-05-16T12:24:03.546Z,33.1
2023-05-16T12:25:05.482Z,33.1
2023-05-16T12:26:07.444Z,33.1
2023-05-16T12:27:10.326Z,33.2
2023-05-16T12:28:12.049Z,33.2
2023-05-16T12:29:14.010Z,33.2
2023-05-16T12:30:16.178Z,33.2
2023-05-16T12:31:32.087Z,33.2
2023-05-16T12:32:35.123Z,33.2
2023-05-16T12:33:37.430Z,33.2
2023-05-16T12:34:39.919Z,33.3
2023-05-16T12:35:42.753Z,33.2
2023-05-16T12:36:45.535Z,33.2
2023-05-16T12:37:48.264Z,33.2
2023-05-16T12:38:51.343Z,33.1
2023-05-16T12:39:54.026Z,33
2023-05-16T12:40:56.947Z,33
2023-05-16T12:41:59.923Z,33
2023-05-16T12:43:03.809Z,33
2023-05-16T12:44:06.184Z,33
2023-05-16T12:45:08.557Z,33.2
2023-05-16T12:46:10.851Z,33.2
2023-05-16T12:47:17.386Z,33.2
2023-05-16T12:48:20.774Z,33.3
2023-05-16T12:49:22.718Z,33.3
2023-05-16T12:50:24.989Z,33.4
2023-05-16T12:51:27.235Z,33.4
2023-05-16T12:52:29.417Z,33.4
2023-05-16T12:53:31.261Z,33.5
2023-05-16T12:54:33.224Z,33.5
2023-05-16T12:55:35.223Z,33.5
2023-05-16T12:56:37.018Z,33.6
2023-05-16T12:57:39.587Z,33.6
2023-05-16T12:58:41.716Z,33.7
2023-05-16T12:59:43.661Z,33.6
2023-05-16T13:00:45.279Z,33.6
2023-05-16T13:01:47.321Z,33.6
2023-05-16T13:02:49.737Z,33.6
2023-05-16T13:03:52.356Z,33.6
2023-05-16T13:04:54.458Z,33.6
2023-05-16T13:05:56.397Z,33.6
2023-05-16T13:07:00.275Z,33.6
2023-05-16T13:08:02.295Z,33.7
2023-05-16T13:09:04.343Z,33.7
2023-05-16T13:10:06.101Z,33.7
2023-05-16T13:11:07.940Z,33.7
2023-05-16T13:12:09.787Z,33.7
2023-05-16T13:13:17.122Z,33.7
2023-05-16T13:14:38.229Z,33.7
2023-05-16T13:15:42.006Z,33.7
2023-05-16T13:16:44.102Z,33.7
2023-05-16T13:17:46.308Z,33.8
2023-05-16T13:18:48.589Z,33.7
2023-05-16T13:19:51.003Z,33.8
2023-05-16T13:20:52.765Z,33.8
2023-05-16T13:21:54.591Z,33.8
2023-05-16T13:22:56.557Z,33.8
2023-05-16T13:23:58.302Z,33.8
2023-05-16T13:25:00.359Z,33.9
2023-05-16T13:26:02.304Z,33.9
2023-05-16T13:27:04.272Z,34
2023-05-16T13:28:06.145Z,33.9
2023-05-16T13:29:07.958Z,33.9
2023-05-16T13:30:09.860Z,33.9
2023-05-16T13:31:11.685Z,34
2023-05-16T13:32:13.670Z,34
2023-05-16T13:33:15.933Z,34.1
2023-05-16T13:34:17.931Z,34.1
2023-05-16T13:35:22.297Z,34.1
2023-05-16T13:36:24.111Z,34
2023-05-16T13:37:25.911Z,34
2023-05-16T13:38:27.764Z,34.1
2023-05-16T13:39:32.197Z,34.1
2023-05-16T13:40:34.016Z,34.1
2023-05-16T13:41:35.989Z,34.1
2023-05-16T13:42:37.683Z,34.2
2023-05-16T13:43:40.415Z,34.2
2023-05-16T13:44:42.381Z,34.4
2023-05-16T13:45:44.442Z,34.4
2023-05-16T13:46:46.378Z,34.3
2023-05-16T13:47:48.765Z,34.3
2023-05-16T13:48:50.993Z,34.4
2023-05-16T13:49:52.860Z,34.4
2023-05-16T13:50:55.303Z,34.4
2023-05-16T13:51:57.166Z,34.5